createdAt,value
2023-04-08T09:18:28.923Z,90.13
2023-04-08T09:21:14.744Z,91.19
2023-04-08T09:23:44.403Z,93.99
2023-04-08T09:26:14.261Z,93.18
2023-04-08T09:31:24.904Z,90.90
2023-04-08T09:34:15.805Z,93.17
2023-04-08T09:36:44.881Z,90.07
2023-04-08T09:39:14.747Z,89.75
2023-04-08T09:41:44.118Z,88.84
2023-04-08T09:44:13.055Z,88.30
2023-04-08T09:46:48.787Z,89.92
2023-04-08T09:49:27.358Z,86.06
2023-04-08T09:52:01.120Z,82.49
2023-04-08T09:54:43.735Z,79.03
2023-04-08T09:57:15.401Z,79.75
2023-04-08T09:59:54.155Z,81.00
2023-04-08T10:02:32.392Z,80.30
2023-04-08T10:05:08.338Z,78.52
2023-04-08T10:07:36.997Z,80.90
2023-04-08T10:10:05.931Z,79.41
2023-04-08T10:12:35.353Z,74.96
2023-04-08T10:15:29.922Z,76.35
2023-04-08T10:18:22.209Z,77.64
2023-04-08T10:20:51.815Z,76.78
2023-04-08T10:23:21.305Z,78.44
2023-04-08T10:25:50.311Z,79.62
2023-04-08T10:28:27.721Z,80.85
2023-04-08T10:30:57.493Z,82.33
2023-04-08T10:33:33.062Z,79.25
2023-04-08T10:36:11.434Z,79.78
2023-04-08T10:38:39.910Z,77.05
2023-04-08T10:41:10.130Z,78.78
2023-04-08T10:43:41.464Z,78.92
2023-04-08T10:46:11.971Z,75.08
2023-04-08T10:48:40.061Z,74.43
2023-04-08T10:51:09.439Z,74.28
2023-04-08T10:53:39.478Z,73.84
2023-04-08T10:56:09.412Z,71.55
2023-04-08T10:58:38.479Z,70.97
2023-04-08T11:01:08.389Z,69.98
2023-04-08T11:03:38.432Z,73.92
2023-04-08T11:06:07.591Z,74.77
2023-04-08T11:08:38.734Z,72.01
2023-04-08T11:11:11.197Z,72.89
2023-04-08T11:13:52.143Z,66.77
2023-04-08T11:16:22.803Z,67.59
2023-04-08T11:18:52.595Z,67.94
2023-04-08T11:21:22.376Z,66.67
2023-04-08T11:23:53.594Z,66.01
2023-04-08T11:26:22.709Z,68.62
2023-04-08T11:28:52.148Z,64.11
2023-04-08T11:31:24.317Z,64.32
2023-04-08T11:33:55.186Z,65.47
2023-04-08T11:36:23.135Z,63.84
2023-04-08T11:38:55.799Z,63.83
2023-04-08T11:41:24.022Z,63.53
2023-04-08T11:43:56.549Z,61.16
2023-04-08T11:46:25.149Z,61.25
2023-04-08T11:49:01.595Z,62.29
2023-04-08T11:51:31.087Z,60.83
2023-04-08T11:54:00.500Z,59.63
2023-04-08T11:56:30.593Z,59.73
2023-04-08T11:58:58.707Z,60.65
2023-04-08T12:01:28.330Z,59.74
2023-04-08T12:03:58.498Z,60.40
2023-04-08T12:06:28.289Z,60.85
2023-04-08T12:08:57.717Z,59.55
2023-04-08T12:11:27.057Z,58.42
2023-04-08T12:13:55.106Z,60.35
2023-04-08T12:16:23.153Z,59.69
2023-04-08T12:18:51.210Z,57.64
2023-04-08T12:21:19.145Z,56.58
2023-04-08T12:23:47.150Z,55.97
2023-04-08T12:26:15.534Z,56.74
2023-04-08T12:28:45.179Z,57.98
2023-04-08T12:31:14.586Z,60.70
2023-04-08T12:33:42.786Z,60.58
2023-04-08T12:36:13.523Z,58.68
2023-04-08T12:38:42.102Z,57.99
2023-04-08T12:41:10.173Z,59.06
2023-04-08T12:43:39.133Z,60.92
2023-04-08T12:46:08.526Z,63.47
2023-04-08T12:48:36.889Z,64.60
2023-04-08T12:51:04.883Z,65.25
2023-04-08T12:53:32.735Z,64.56
2023-04-08T12:56:00.814Z,65.66
2023-04-08T12:58:29.379Z,65.67
2023-04-08T13:00:57.693Z,65.67
2023-04-08T13:03:29.546Z,67.27
2023-04-08T13:05:59.122Z,68.84
2023-04-08T13:08:27.178Z,66.04
2023-04-08T13:10:55.778Z,68.04
2023-04-08T13:13:24.266Z,66.00
2023-04-08T13:15:52.288Z,66.43
2023-04-08T13:18:20.463Z,67.73
2023-04-08T13:20:49.867Z,66.10
2023-04-08T13:23:18.808Z,68.16
2023-04-08T13:25:46.886Z,67.09
2023-04-08T13:28:14.826Z,65.81
2023-04-08T13:30:43.814Z,63.92
2023-04-08T13:33:12.126Z,61.49
2023-04-08T13:35:40.858Z,61.10
2023-04-08T13:38:13.139Z,58.82
2023-04-08T13:40:41.711Z,57.33
2023-04-08T13:43:09.854Z,56.18
2023-04-08T13:45:37.912Z,56.66
2023-04-08T13:48:06.428Z,56.83
2023-04-08T13:50:34.421Z,57.33
2023-04-08T13:53:02.649Z,57.78
2023-04-08T13:55:31.974Z,58.49
2023-04-08T13:58:00.280Z,58.76
2023-04-08T14:00:28.325Z,59.44
2023-04-08T14:02:56.584Z,59.87
2023-04-08T14:05:24.572Z,60.50
2023-04-08T14:07:52.540Z,61.52
2023-04-08T14:10:20.815Z,66.10
2023-04-08T14:12:52.634Z,70.08
2023-04-08T14:15:20.828Z,74.14
2023-04-08T14:17:49.840Z,83.20
2023-04-08T14:20:18.311Z,100.00
2023-04-08T14:22:49.473Z,100.00
2023-04-08T14:25:17.801Z,100.00
2023-04-08T14:27:56.722Z,100.00
2023-04-08T14:30:28.889Z,100.00
2023-04-08T14:32:59.403Z,100.00
2023-04-08T14:35:28.237Z,100.00
2023-04-08T14:37:56.662Z,100.00
2023-04-08T14:40:25.659Z,100.00
2023-04-08T14:42:54.171Z,100.00
2023-04-08T14:45:22.191Z,100.00
2023-04-08T14:47:51.942Z,100.00
2023-04-08T14:50:20.181Z,100.00
2023-04-08T14:52:49.168Z,100.00
2023-04-08T14:55:17.676Z,100.00
2023-04-08T14:57:45.550Z,100.00
2023-04-08T15:00:15.042Z,100.00
2023-04-08T15:02:44.398Z,100.00
2023-04-08T15:05:14.269Z,100.00
2023-04-08T15:07:43.180Z,100.00
2023-04-08T15:10:11.953Z,100.00
2023-04-08T15:12:39.879Z,100.00
2023-04-08T15:15:09.695Z,100.00
2023-04-08T15:17:38.224Z,100.00
2023-04-08T15:20:07.719Z,100.00
2023-04-08T15:22:37.158Z,100.00
2023-04-08T15:25:06.454Z,100.00
2023-04-08T15:27:36.344Z,100.00
2023-04-08T15:30:04.378Z,100.00
2023-04-08T15:32:32.601Z,100.00
2023-04-08T15:35:00.743Z,100.00
2023-04-08T15:37:30.193Z,100.00
2023-04-08T15:39:59.850Z,100.00
2023-04-08T15:42:28.089Z,100.00
2023-04-08T15:44:56.059Z,100.00
2023-04-08T15:47:24.357Z,100.00
2023-04-08T15:49:55.908Z,100.00
2023-04-08T15:52:26.035Z,100.00
2023-04-08T15:54:54.356Z,100.00
2023-04-08T15:57:26.881Z,100.00
2023-04-08T15:59:55.126Z,100.00
2023-04-08T16:02:23.236Z,100.00
2023-04-08T16:04:51.786Z,100.00
2023-04-08T16:07:21.243Z,100.00
2023-04-08T16:09:49.412Z,100.00
2023-04-08T16:12:17.645Z,100.00
2023-04-08T16:14:47.974Z,100.00
2023-04-08T16:17:16.605Z,100.00
2023-04-08T16:19:45.001Z,100.00
2023-04-08T16:22:13.025Z,100.00
2023-04-08T16:24:41.448Z,100.00
2023-04-08T16:27:09.812Z,100.00
2023-04-08T16:29:38.021Z,100.00
2023-04-08T16:32:07.526Z,100.00
2023-04-08T16:34:36.385Z,100.00
2023-04-08T16:37:04.712Z,100.00
2023-04-08T16:39:32.833Z,100.00
2023-04-08T16:42:01.268Z,100.00
2023-04-08T16:44:29.463Z,100.00
2023-04-08T16:46:57.855Z,100.00
2023-04-08T16:49:29.213Z,100.00
2023-04-08T16:51:57.224Z,100.00
2023-04-08T16:54:25.825Z,100.00
2023-04-08T16:56:53.759Z,100.00
2023-04-08T16:59:22.001Z,100.00
2023-04-08T17:01:50.590Z,100.00
2023-04-08T17:04:18.559Z,100.00
2023-04-08T17:06:49.487Z,100.00
2023-04-08T17:09:18.020Z,100.00
2023-04-08T17:11:47.311Z,100.00
2023-04-08T17:14:15.679Z,100.00
2023-04-08T17:16:43.902Z,100.00
2023-04-08T17:19:14.210Z,100.00
2023-04-08T17:21:43.310Z,100.00
2023-04-08T17:24:14.424Z,100.00
2023-04-08T17:26:43.393Z,100.00
2023-04-08T17:29:13.498Z,100.00
2023-04-08T17:31:43.932Z,100.00
2023-04-08T17:34:12.780Z,100.00
2023-04-08T17:36:41.095Z,100.00
2023-04-08T17:39:09.401Z,100.00
2023-04-08T17:41:40.720Z,100.00
2023-04-08T17:44:09.388Z,100.00
2023-04-08T17:46:37.754Z,100.00
2023-04-08T17:49:06.645Z,100.00
2023-04-08T17:51:34.568Z,100.00
2023-04-08T17:54:02.605Z,100.00
2023-04-08T17:56:31.345Z,100.00
2023-04-08T17:59:01.921Z,100.00
2023-04-08T18:01:30.172Z,100.00
2023-04-08T18:03:58.343Z,100.00
2023-04-08T18:06:28.448Z,100.00
2023-04-08T18:08:57.012Z,100.00
2023-04-08T18:11:27.332Z,100.00
2023-04-08T18:13:56.959Z,100.00
2023-04-08T18:16:27.175Z,100.00
2023-04-08T18:18:55.558Z,100.00
2023-04-08T18:21:23.551Z,100.00
2023-04-08T18:23:51.810Z,100.00
2023-04-08T18:26:19.972Z,100.00
2023-04-08T18:28:48.125Z,100.00
2023-04-08T18:31:16.811Z,100.00
2023-04-08T18:33:46.953Z,100.00
2023-04-08T18:36:15.186Z,100.00
2023-04-08T18:38:44.746Z,100.00
2023-04-08T18:41:13.385Z,100.00
2023-04-08T18:43:42.103Z,100.00
2023-04-08T18:46:10.228Z,100.00
2023-04-08T18:48:38.172Z,100.00
2023-04-08T18:51:08.250Z,100.00
2023-04-08T18:53:36.329Z,100.00
2023-04-08T18:56:04.916Z,100.00
2023-04-08T18:58:33.769Z,100.00
2023-04-08T19:01:02.078Z,100.00
2023-04-08T19:03:30.101Z,100.00
2023-04-08T19:05:58.741Z,100.00
2023-04-08T19:08:28.447Z,100.00
2023-04-08T19:10:56.921Z,100.00
2023-04-08T19:13:25.154Z,100.00
2023-04-08T19:15:53.619Z,100.00
2023-04-08T19:18:21.675Z,100.00
2023-04-08T19:20:49.738Z,100.00
2023-04-08T19:23:18.954Z,100.00
2023-04-08T19:25:48.709Z,100.00
2023-04-08T19:28:16.738Z,100.00
2023-04-08T19:30:45.655Z,100.00
2023-04-08T19:33:14.280Z,100.00
2023-04-08T19:35:42.802Z,100.00
2023-04-08T19:38:12.139Z,100.00
2023-04-08T19:40:42.126Z,100.00
2023-04-08T19:43:11.966Z,100.00
2023-04-08T19:45:39.909Z,100.00
2023-04-08T19:48:08.193Z,100.00
2023-04-08T19:50:38.806Z,100.00
2023-04-08T19:53:07.236Z,100.00
2023-04-08T19:55:37.606Z,100.00
2023-04-08T19:58:05.731Z,100.00
2023-04-08T20:00:37.669Z,100.00
2023-04-08T20:03:08.324Z,100.00
2023-04-08T20:05:37.072Z,100.00
2023-04-08T20:08:05.343Z,100.00
2023-04-08T20:10:33.318Z,100.00
2023-04-08T20:13:01.348Z,100.00
2023-04-08T20:15:29.381Z,100.00
2023-04-08T20:17:59.100Z,100.00
2023-04-08T20:20:28.951Z,100.00
2023-04-08T20:22:57.893Z,100.00
2023-04-08T20:25:26.107Z,100.00
2023-04-08T20:27:54.394Z,100.00
2023-04-08T20:30:22.864Z,100.00
2023-04-08T20:32:51.716Z,100.00
2023-04-08T20:35:22.287Z,100.00
2023-04-08T20:37:50.342Z,100.00
2023-04-08T20:40:18.632Z,100.00
2023-04-08T20:42:46.901Z,100.00
2023-04-08T20:45:14.898Z,100.00
2023-04-08T20:47:44.666Z,100.00
2023-04-08T20:50:13.713Z,100.00
2023-04-08T20:52:43.370Z,100.00
2023-04-08T20:55:11.577Z,100.00
2023-04-08T20:57:40.486Z,100.00
2023-04-08T21:00:10.347Z,100.00
2023-04-08T21:02:38.837Z,100.00
2023-04-08T21:05:07.324Z,100.00
2023-04-08T21:07:36.179Z,100.00
2023-04-08T21:10:06.470Z,100.00
2023-04-08T21:12:34.672Z,100.00
2023-04-08T21:15:02.812Z,100.00
2023-04-08T21:17:31.295Z,100.00
2023-04-08T21:19:59.629Z,100.00
2023-04-08T21:22:28.894Z,100.00
2023-04-08T21:24:57.972Z,100.00
2023-04-08T21:27:27.589Z,100.00
2023-04-08T21:29:56.053Z,100.00
2023-04-08T21:32:24.610Z,100.00
2023-04-08T21:34:54.495Z,100.00
2023-04-08T21:37:23.965Z,100.00
2023-04-08T21:39:52.618Z,100.00
2023-04-08T21:42:23.184Z,100.00
2023-04-08T21:44:52.642Z,100.00
2023-04-08T21:47:20.957Z,100.00
2023-04-08T21:49:49.508Z,100.00
2023-04-08T21:52:18.278Z,100.00
2023-04-08T21:54:50.894Z,100.00
2023-04-08T21:57:20.978Z,100.00
2023-04-08T21:59:50.291Z,100.00
2023-04-08T22:02:20.863Z,100.00
2023-04-08T22:04:50.725Z,100.00
2023-04-08T22:07:18.860Z,100.00
2023-04-08T22:09:46.946Z,100.00
2023-04-08T22:12:14.966Z,100.00
2023-04-08T22:14:42.999Z,100.00
2023-04-08T22:17:13.047Z,100.00
2023-04-08T22:19:42.509Z,100.00
2023-04-08T22:22:10.775Z,100.00
2023-04-08T22:24:38.879Z,100.00
2023-04-08T22:27:07.223Z,100.00
2023-04-08T22:29:35.499Z,100.00
2023-04-08T22:32:03.689Z,100.00
2023-04-08T22:34:32.652Z,100.00
2023-04-08T22:37:02.057Z,100.00
2023-04-08T22:39:31.036Z,100.00
2023-04-08T22:41:59.016Z,100.00
2023-04-08T22:44:27.922Z,100.00
2023-04-08T22:46:56.063Z,100.00
2023-04-08T22:49:24.409Z,100.00
2023-04-08T22:51:52.563Z,100.00
2023-04-08T22:54:22.781Z,100.00
2023-04-08T22:56:50.917Z,100.00
2023-04-08T22:59:18.968Z,100.00
2023-04-08T23:01:48.917Z,100.00
2023-04-08T23:04:16.994Z,100.00
2023-04-08T23:06:45.201Z,100.00
2023-04-08T23:09:13.279Z,100.00
2023-04-08T23:11:43.839Z,100.00
2023-04-08T23:14:14.030Z,100.00
2023-04-08T23:16:43.267Z,100.00
2023-04-08T23:19:11.594Z,100.00
2023-04-08T23:21:47.138Z,100.00
2023-04-08T23:24:15.358Z,100.00
2023-04-08T23:26:45.479Z,100.00
2023-04-08T23:29:13.912Z,100.00
2023-04-08T23:31:41.936Z,100.00
2023-04-08T23:34:10.546Z,100.00
2023-04-08T23:36:39.245Z,100.00
2023-04-08T23:39:07.716Z,100.00
2023-04-08T23:41:37.395Z,100.00
2023-04-08T23:44:08.758Z,100.00
2023-04-08T23:46:37.064Z,100.00
2023-04-08T23:49:05.447Z,100.00
2023-04-08T23:51:34.086Z,100.00
2023-04-08T23:54:02.060Z,100.00
2023-04-08T23:56:30.126Z,100.00
2023-04-08T23:58:58.117Z,100.00
